METAR Data
IDs: Format: Raw Decoded Include TAF

Data at: 0336 UTC 24 Jun 2021

METAR for:KFWA (Fort Wayne Intl, IN, US)
Text:KFWA 240254Z 15006KT 10SM SCT160 19/11 A3013 RMK AO2 SLP202 T01890111 53006
Temperature: 18.9°C ( 66°F)
Dewpoint: 11.1°C ( 52°F) [RH = 61%]
Pressure (altimeter):30.13 inches Hg (1020.4 mb) [Sea level pressure: 1020.2 mb]
Winds:from the SSE (150 degrees) at 7 MPH (6 knots; 3.1 m/s)
Visibility:10 or more sm (16+ km)
Ceiling:at least 12,000 feet AGL
Clouds: scattered clouds at 16000 feet AGL